Time;durP1;ratioP1;P1;durP2;ratioP2;P2;SDS_P1;SDS_P2;PMS_P1;PMS_P2;Temp;Humidity;BMP_temperature;BMP_pressure;BME280_temperature;BME280_humidity;BME280_pressure;Samples;Min_cycle;Max_cycle;Signal;HPM_P1;HPM_P2
2022/01/07 00:00:26;;;;;;;13.27;6.65;;;-1.40;99.90;;;;;;4973649;28;20055;-75
2022/01/07 00:02:56;;;;;;;17.77;7.18;;;-1.40;99.90;;;;;;4970229;28;20069;-75
2022/01/07 00:05:24;;;;;;;14.82;6.65;;;-1.50;99.90;;;;;;4973089;28;20039;-75
2022/01/07 00:07:50;;;;;;;13.13;6.15;;;-1.40;99.90;;;;;;4976247;28;20180;-75
2022/01/07 00:10:18;;;;;;;14.80;6.28;;;-1.50;99.90;;;;;;4975373;28;20141;-75
2022/01/07 00:12:44;;;;;;;13.40;6.07;;;-1.50;99.90;;;;;;4975204;28;20026;-75
2022/01/07 00:15:10;;;;;;;13.93;6.03;;;-1.50;99.90;;;;;;4957537;28;20110;-74
2022/01/07 00:17:36;;;;;;;14.55;6.95;;;-1.60;99.90;;;;;;4972574;28;20507;-74
2022/01/07 00:20:05;;;;;;;13.63;5.68;;;-1.60;99.90;;;;;;4970641;28;20059;-74
2022/01/07 00:22:34;;;;;;;12.70;5.82;;;-1.50;99.90;;;;;;4959154;28;20033;-74
2022/01/07 00:25:03;;;;;;;14.25;5.95;;;-1.60;99.90;;;;;;4971424;28;20042;-75
2022/01/07 00:27:29;;;;;;;13.57;6.50;;;-1.50;99.90;;;;;;4959161;28;20122;-74
2022/01/07 00:29:55;;;;;;;15.48;6.32;;;-1.50;99.90;;;;;;4980217;28;20099;-75
2022/01/07 00:32:20;;;;;;;11.98;5.95;;;-1.60;99.90;;;;;;4979818;28;20161;-74
2022/01/07 00:34:49;;;;;;;14.20;6.03;;;-1.60;99.90;;;;;;4972945;28;20444;-74
2022/01/07 00:37:15;;;;;;;13.00;6.15;;;-1.60;99.90;;;;;;4969737;28;20439;-74
2022/01/07 00:39:40;;;;;;;14.52;5.60;;;-1.60;99.90;;;;;;4954142;28;20031;-74
2022/01/07 00:42:06;;;;;;;12.98;5.80;;;-1.60;99.90;;;;;;4965539;28;20090;-75
2022/01/07 00:44:32;;;;;;;16.17;6.35;;;-1.60;99.90;;;;;;4957759;28;20052;-74
2022/01/07 00:46:58;;;;;;;13.38;5.53;;;-1.60;99.90;;;;;;4975113;28;20051;-75
2022/01/07 00:49:23;;;;;;;13.75;5.43;;;-1.70;99.90;;;;;;4975731;28;20042;-74
2022/01/07 00:51:50;;;;;;;14.20;5.72;;;-1.70;99.90;;;;;;4963751;28;20035;-74
2022/01/07 00:54:16;;;;;;;17.38;6.18;;;-1.80;99.90;;;;;;4967840;28;20019;-75
2022/01/07 00:56:41;;;;;;;12.88;6.13;;;-1.80;99.90;;;;;;4955311;28;20022;-76
2022/01/07 00:59:07;;;;;;;10.95;5.38;;;-1.80;99.90;;;;;;4959661;28;20026;-74
2022/01/07 01:01:33;;;;;;;10.73;5.30;;;-1.80;99.90;;;;;;4972975;28;20412;-76
2022/01/07 01:03:59;;;;;;;11.57;5.70;;;-1.80;99.90;;;;;;4971165;28;20529;-75
2022/01/07 01:06:24;;;;;;;11.18;5.25;;;-1.80;99.90;;;;;;4954362;28;20624;-77
2022/01/07 01:08:50;;;;;;;17.05;5.13;;;-1.80;99.90;;;;;;4973909;28;20053;-76
2022/01/07 01:11:16;;;;;;;12.65;5.18;;;-1.70;99.90;;;;;;4956899;28;20117;-75
2022/01/07 01:13:41;;;;;;;11.15;4.97;;;-1.80;99.90;;;;;;4962490;28;20030;-77
2022/01/07 01:16:07;;;;;;;11.60;5.32;;;-1.70;99.90;;;;;;4970926;28;20521;-76
2022/01/07 01:18:36;;;;;;;14.55;5.47;;;-1.80;99.90;;;;;;4968689;28;20042;-77
2022/01/07 01:21:02;;;;;;;22.13;7.68;;;-1.80;99.90;;;;;;4967154;28;20030;-77
2022/01/07 01:23:27;;;;;;;15.57;7.43;;;-1.90;99.90;;;;;;4980113;28;20034;-74
2022/01/07 01:25:53;;;;;;;14.98;7.18;;;-1.90;99.90;;;;;;4975874;28;20034;-77
2022/01/07 01:28:22;;;;;;;17.60;7.13;;;-1.90;99.90;;;;;;4974316;28;20031;-76
2022/01/07 01:30:48;;;;;;;16.17;8.25;;;-2.00;99.90;;;;;;4968368;28;20042;-77
2022/01/07 01:33:22;;;;;;;16.05;6.35;;;-2.00;99.90;;;;;;4976543;28;20336;-77
2022/01/07 01:35:48;;;;;;;13.80;6.70;;;-2.00;99.90;;;;;;4963393;28;20551;-74
2022/01/07 01:38:14;;;;;;;15.07;6.90;;;-2.00;99.90;;;;;;4970449;28;20078;-76
2022/01/07 01:40:39;;;;;;;16.13;6.78;;;-2.00;99.90;;;;;;4971570;28;20031;-77
2022/01/07 01:43:05;;;;;;;18.80;6.80;;;-2.00;99.90;;;;;;4962039;28;20085;-74
2022/01/07 01:45:31;;;;;;;16.83;6.28;;;-2.10;99.90;;;;;;4949660;28;20030;-76
2022/01/07 01:47:56;;;;;;;18.25;7.45;;;-2.10;99.90;;;;;;4974198;28;20046;-77
2022/01/07 01:50:23;;;;;;;16.77;7.93;;;-2.10;99.90;;;;;;4973682;28;20554;-77
2022/01/07 01:52:53;;;;;;;14.23;7.50;;;-2.10;99.90;;;;;;4981852;28;20019;-77
2022/01/07 01:55:19;;;;;;;20.95;9.43;;;-2.10;99.90;;;;;;4952521;28;20026;-75
2022/01/07 01:57:46;;;;;;;14.55;7.75;;;-2.10;99.90;;;;;;4959965;28;20031;-77
2022/01/07 02:00:12;;;;;;;13.82;6.50;;;-2.20;99.90;;;;;;4978650;28;20034;-76
2022/01/07 02:02:38;;;;;;;18.02;7.68;;;-2.20;99.90;;;;;;4975714;28;20097;-77
2022/01/07 02:05:05;;;;;;;15.98;7.70;;;-2.30;99.90;;;;;;4971987;28;20034;-76
2022/01/07 02:07:40;;;;;;;19.05;7.70;;;-2.30;99.90;;;;;;4974541;28;20035;-77
2022/01/07 02:10:09;;;;;;;14.55;7.45;;;-2.30;99.90;;;;;;4978364;28;20096;-77
2022/01/07 02:12:35;;;;;;;18.55;7.63;;;-2.30;99.90;;;;;;4975164;28;20027;-77
2022/01/07 02:15:04;;;;;;;21.85;8.43;;;-2.30;99.90;;;;;;4954680;28;20484;-77
2022/01/07 02:17:30;;;;;;;17.63;7.60;;;-2.30;99.90;;;;;;4970555;28;20502;-76
2022/01/07 02:19:57;;;;;;;12.30;6.13;;;-2.30;99.90;;;;;;4977541;28;20161;-77
2022/01/07 02:22:26;;;;;;;15.88;6.80;;;-2.30;99.90;;;;;;4982268;28;20041;-76
2022/01/07 02:24:53;;;;;;;11.13;5.47;;;-2.30;99.90;;;;;;4957712;28;20118;-76
2022/01/07 02:27:20;;;;;;;16.88;6.15;;;-2.30;99.90;;;;;;4970240;28;20027;-76
2022/01/07 02:29:49;;;;;;;12.68;6.93;;;-2.40;99.90;;;;;;4954655;28;20029;-77
2022/01/07 02:32:18;;;;;;;15.85;6.57;;;-2.40;99.90;;;;;;4971959;28;20531;-75
2022/01/07 02:34:46;;;;;;;16.40;5.35;;;-2.40;99.90;;;;;;4965226;28;20469;-75
2022/01/07 02:37:12;;;;;;;10.90;5.85;;;-2.50;99.90;;;;;;4964621;28;20048;-76
2022/01/07 02:39:39;;;;;;;12.25;5.68;;;-2.50;99.90;;;;;;4979018;28;20022;-75
2022/01/07 02:42:05;;;;;;;17.50;7.07;;;-2.50;99.90;;;;;;4975358;28;20497;-76
2022/01/07 02:44:31;;;;;;;16.70;6.85;;;-2.40;99.90;;;;;;4965696;28;20030;-76
2022/01/07 02:46:57;;;;;;;12.30;5.50;;;-2.50;99.90;;;;;;4958867;28;20626;-77
2022/01/07 02:49:23;;;;;;;17.13;6.45;;;-2.40;99.90;;;;;;4978151;28;20066;-77
2022/01/07 02:51:48;;;;;;;11.63;5.70;;;-2.30;99.90;;;;;;4977474;28;20031;-76
2022/01/07 02:54:14;;;;;;;15.57;5.85;;;-2.30;99.90;;;;;;4975632;28;20035;-77
2022/01/07 02:56:41;;;;;;;16.77;6.05;;;-2.30;99.90;;;;;;4980708;28;20102;-77
2022/01/07 02:59:08;;;;;;;15.52;6.43;;;-2.20;99.90;;;;;;4979665;28;20035;-76
2022/01/07 03:01:36;;;;;;;11.65;5.50;;;-2.10;99.90;;;;;;4985839;28;20026;-76
2022/01/07 03:04:03;;;;;;;12.27;4.85;;;-2.10;99.90;;;;;;4968615;28;20361;-76
2022/01/07 03:06:29;;;;;;;11.60;5.57;;;-2.20;99.90;;;;;;4976037;28;20042;-74
2022/01/07 03:08:55;;;;;;;15.82;5.22;;;-2.10;99.90;;;;;;4979112;28;20329;-77
2022/01/07 03:11:21;;;;;;;11.35;4.72;;;-2.10;99.90;;;;;;4963994;28;20078;-77
2022/01/07 03:13:47;;;;;;;14.80;4.95;;;-2.00;99.90;;;;;;4971641;28;20051;-76
2022/01/07 03:16:13;;;;;;;11.43;4.35;;;-2.00;99.90;;;;;;4980027;28;20019;-75
2022/01/07 03:18:39;;;;;;;14.82;4.85;;;-2.10;99.90;;;;;;4973502;28;20118;-76
2022/01/07 03:21:05;;;;;;;9.90;4.68;;;-2.10;99.90;;;;;;4975113;28;20033;-75
2022/01/07 03:23:32;;;;;;;8.07;4.32;;;-2.10;99.90;;;;;;4973060;28;20408;-74
2022/01/07 03:25:58;;;;;;;10.18;4.55;;;-2.20;99.90;;;;;;4975743;28;20043;-76
2022/01/07 03:28:24;;;;;;;13.18;4.20;;;-2.30;99.90;;;;;;4972197;28;20129;-75
2022/01/07 03:30:51;;;;;;;12.43;4.70;;;-2.30;99.90;;;;;;4976387;28;20027;-76
2022/01/07 03:33:18;;;;;;;12.15;5.45;;;-2.30;99.90;;;;;;4966414;28;20042;-76
2022/01/07 03:35:43;;;;;;;13.02;4.40;;;-2.30;99.90;;;;;;4957338;28;20063;-76
2022/01/07 03:38:09;;;;;;;13.65;4.82;;;-2.30;99.90;;;;;;4970889;28;20026;-76
2022/01/07 03:40:35;;;;;;;12.25;4.90;;;-2.30;99.90;;;;;;4979362;28;20130;-76
2022/01/07 03:43:02;;;;;;;10.75;4.68;;;-2.20;99.90;;;;;;4976877;28;20026;-76
2022/01/07 03:45:28;;;;;;;9.30;4.10;;;-2.20;99.90;;;;;;4976719;28;20482;-74
2022/01/07 03:47:54;;;;;;;9.32;4.38;;;-2.20;99.90;;;;;;4985102;28;20122;-76
2022/01/07 03:50:23;;;;;;;7.35;3.67;;;-2.20;99.90;;;;;;4976648;28;20031;-75
2022/01/07 03:52:49;;;;;;;8.13;4.53;;;-2.20;99.90;;;;;;4972391;28;20468;-75
2022/01/07 03:55:18;;;;;;;12.70;4.28;;;-2.20;99.90;;;;;;4970980;28;20547;-75
2022/01/07 03:57:44;;;;;;;11.45;4.65;;;-2.20;99.90;;;;;;4981409;28;20430;-76
2022/01/07 04:00:17;;;;;;;7.03;3.95;;;-2.20;99.90;;;;;;4986389;28;20030;-76
2022/01/07 04:02:44;;;;;;;14.48;5.28;;;-2.20;99.90;;;;;;4976952;28;20062;-75
2022/01/07 04:05:10;;;;;;;9.50;4.40;;;-2.20;99.90;;;;;;4971201;28;20042;-76
2022/01/07 04:07:36;;;;;;;12.23;5.35;;;-2.20;99.90;;;;;;4983345;28;20035;-76
2022/01/07 04:10:03;;;;;;;8.75;4.80;;;-2.20;99.90;;;;;;4975374;28;20088;-76
2022/01/07 04:12:29;;;;;;;9.10;4.70;;;-2.20;99.90;;;;;;4954201;28;20027;-76
2022/01/07 04:15:08;;;;;;;9.15;4.72;;;-2.20;99.90;;;;;;4985041;28;20046;-74
2022/01/07 04:17:47;;;;;;;11.13;4.70;;;-2.10;99.90;;;;;;4974856;28;20129;-76
2022/01/07 04:20:15;;;;;;;9.75;4.60;;;-2.20;99.90;;;;;;4974702;28;20066;-73
2022/01/07 04:22:42;;;;;;;13.07;5.43;;;-2.20;99.90;;;;;;4956708;28;20050;-75
2022/01/07 04:25:13;;;;;;;9.63;4.45;;;-2.10;99.90;;;;;;4975815;28;20336;-77
2022/01/07 04:27:39;;;;;;;8.98;4.13;;;-2.20;99.90;;;;;;4970230;28;20338;-77
2022/01/07 04:30:06;;;;;;;10.68;4.72;;;-2.20;99.90;;;;;;4957564;28;20034;-75
2022/01/07 04:32:31;;;;;;;11.05;4.63;;;-2.20;99.90;;;;;;4978019;28;20106;-75
2022/01/07 04:35:01;;;;;;;8.63;4.47;;;-2.20;99.90;;;;;;4972761;28;20051;-77
2022/01/07 04:37:32;;;;;;;9.13;4.63;;;-2.20;99.90;;;;;;4962980;28;20375;-78
2022/01/07 04:39:58;;;;;;;9.48;4.43;;;-2.10;99.90;;;;;;4982942;28;20361;-77
2022/01/07 04:42:26;;;;;;;9.05;4.63;;;-2.20;99.90;;;;;;4957888;28;20061;-77
2022/01/07 04:44:52;;;;;;;11.13;4.75;;;-2.10;99.90;;;;;;4973808;28;20041;-77
2022/01/07 04:47:21;;;;;;;10.98;4.97;;;-2.10;99.90;;;;;;4959876;28;20395;-77
2022/01/07 04:49:50;;;;;;;11.52;5.20;;;-2.10;99.90;;;;;;4973673;28;20039;-77
2022/01/07 04:52:21;;;;;;;10.05;4.60;;;-2.10;99.90;;;;;;4973767;28;20476;-77
2022/01/07 04:54:46;;;;;;;10.32;4.65;;;-2.10;99.90;;;;;;4975983;28;20448;-75
2022/01/07 04:57:15;;;;;;;9.13;3.55;;;-2.20;99.90;;;;;;4973335;28;20102;-79
2022/01/07 04:59:41;;;;;;;8.57;4.22;;;-2.10;99.90;;;;;;4977566;28;20063;-75
2022/01/07 05:02:07;;;;;;;9.77;4.63;;;-2.10;99.90;;;;;;4966833;28;20061;-75
2022/01/07 05:04:32;;;;;;;11.13;4.60;;;-2.20;99.90;;;;;;4956614;28;20035;-76
2022/01/07 05:06:59;;;;;;;9.75;4.15;;;-2.10;99.90;;;;;;4974503;28;20038;-79
2022/01/07 05:09:27;;;;;;;10.00;4.63;;;-2.10;99.90;;;;;;4966686;28;20054;-78
2022/01/07 05:11:58;;;;;;;9.45;4.25;;;-2.10;99.90;;;;;;4977713;28;20046;-79
2022/01/07 05:14:24;;;;;;;11.27;4.55;;;-2.20;99.90;;;;;;4977473;28;20030;-73
2022/01/07 05:16:50;;;;;;;9.95;4.63;;;-2.10;99.90;;;;;;4971048;28;20030;-78
2022/01/07 05:19:15;;;;;;;9.55;5.07;;;-2.10;99.90;;;;;;4976869;28;20412;-76
2022/01/07 05:21:41;;;;;;;9.52;4.60;;;-2.10;99.90;;;;;;4979486;28;20496;-79
2022/01/07 05:24:07;;;;;;;10.55;4.75;;;-2.10;99.90;;;;;;4980161;28;20102;-79
2022/01/07 05:26:33;;;;;;;10.23;4.63;;;-2.10;99.90;;;;;;4982092;28;20365;-78
2022/01/07 05:28:58;;;;;;;10.13;4.78;;;-2.10;99.90;;;;;;4982929;28;20105;-79
2022/01/07 05:31:25;;;;;;;10.10;5.15;;;-2.10;99.90;;;;;;4977702;28;20047;-79
2022/01/07 05:33:53;;;;;;;11.20;5.07;;;-2.10;99.90;;;;;;4982762;28;20411;-79
2022/01/07 05:36:19;;;;;;;11.57;5.07;;;-2.20;99.90;;;;;;4978963;28;20022;-75
2022/01/07 05:38:45;;;;;;;15.40;5.30;;;-2.20;99.90;;;;;;4974653;28;20099;-75
2022/01/07 05:41:17;;;;;;;9.23;4.30;;;-2.10;99.90;;;;;;4975765;28;20054;-77
2022/01/07 05:43:43;;;;;;;9.40;4.53;;;-2.10;99.90;;;;;;4974548;28;20105;-75
2022/01/07 05:46:12;;;;;;;8.13;3.92;;;-2.10;99.90;;;;;;4959170;28;20487;-76
2022/01/07 05:48:38;;;;;;;8.10;3.63;;;-2.10;99.90;;;;;;4972787;28;20027;-77
2022/01/07 05:51:04;;;;;;;11.80;4.70;;;-2.10;99.90;;;;;;4959643;28;20068;-77
2022/01/07 05:53:29;;;;;;;8.70;4.10;;;-2.20;99.90;;;;;;4976449;28;20034;-77
2022/01/07 05:55:55;;;;;;;8.00;4.07;;;-2.20;99.90;;;;;;4973550;28;20029;-67
2022/01/07 05:58:23;;;;;;;9.45;4.75;;;-2.20;99.90;;;;;;4972337;28;20038;-67
2022/01/07 06:00:49;;;;;;;13.90;5.50;;;-2.00;99.90;;;;;;4973878;28;20050;-67
2022/01/07 06:03:18;;;;;;;10.15;5.57;;;-1.80;99.90;;;;;;4955783;28;20447;-67
2022/01/07 06:05:43;;;;;;;12.02;5.97;;;-1.70;99.90;;;;;;4973674;28;20420;-67
2022/01/07 06:08:09;;;;;;;16.65;7.07;;;-1.50;99.90;;;;;;4971625;28;20029;-75
2022/01/07 06:10:35;;;;;;;16.23;6.53;;;-1.50;99.90;;;;;;4974473;28;20090;-76
2022/01/07 06:13:07;;;;;;;13.60;6.63;;;-1.40;99.90;;;;;;4973423;28;20019;-76
2022/01/07 06:15:39;;;;;;;15.32;7.93;;;-1.40;99.90;;;;;;4972495;28;20031;-75
2022/01/07 06:18:05;;;;;;;20.95;9.07;;;-1.50;99.90;;;;;;4978436;28;20026;-76
2022/01/07 06:20:31;;;;;;;15.57;7.65;;;-1.50;99.90;;;;;;4973630;28;20458;-76
2022/01/07 06:23:00;;;;;;;18.38;7.35;;;-1.50;99.90;;;;;;4971593;28;20085;-76
2022/01/07 06:25:26;;;;;;;14.70;7.78;;;-1.50;99.90;;;;;;4975615;28;20182;-76
2022/01/07 06:27:52;;;;;;;12.48;6.80;;;-1.60;99.90;;;;;;4955492;28;20165;-76
2022/01/07 06:30:18;;;;;;;14.55;6.80;;;-1.50;99.90;;;;;;4972873;28;20102;-76
2022/01/07 06:32:43;;;;;;;16.50;6.72;;;-1.50;99.90;;;;;;4976995;28;20027;-75
2022/01/07 06:35:12;;;;;;;17.02;6.90;;;-1.50;99.90;;;;;;4969303;28;20071;-74
2022/01/07 06:37:38;;;;;;;11.52;6.32;;;-1.50;99.90;;;;;;4969341;28;20057;-74
2022/01/07 06:40:05;;;;;;;18.38;7.30;;;-1.50;99.90;;;;;;4965252;28;20144;-75
2022/01/07 06:42:34;;;;;;;13.60;6.70;;;-1.40;99.90;;;;;;4970066;28;20034;-74
2022/01/07 06:45:07;;;;;;;18.67;7.63;;;-1.40;99.90;;;;;;4975603;28;20041;-75
2022/01/07 06:47:33;;;;;;;16.83;8.20;;;-1.40;99.90;;;;;;4955839;28;20035;-74
2022/01/07 06:49:59;;;;;;;17.25;6.35;;;-1.40;99.90;;;;;;4974222;28;20045;-74
2022/01/07 06:52:25;;;;;;;11.68;5.65;;;-1.30;99.90;;;;;;4950843;28;20027;-76
2022/01/07 06:54:50;;;;;;;14.88;6.68;;;-1.30;99.90;;;;;;5006872;23;20172;-72
2022/01/07 06:57:19;;;;;;;13.50;6.43;;;-1.30;99.90;;;;;;5032277;28;20516;-72
2022/01/07 06:59:45;;;;;;;16.88;6.88;;;-1.30;99.90;;;;;;5021313;28;20334;-72
2022/01/07 07:02:13;;;;;;;15.63;5.75;;;-1.30;99.90;;;;;;5033554;28;20085;-73
2022/01/07 07:04:39;;;;;;;13.30;6.43;;;-1.20;99.90;;;;;;5016131;28;20040;-76
2022/01/07 07:07:08;;;;;;;12.77;5.90;;;-1.20;99.90;;;;;;5032706;28;20504;-73
2022/01/07 07:09:34;;;;;;;13.63;6.07;;;-1.20;99.90;;;;;;5009782;28;20043;-70
2022/01/07 07:11:59;;;;;;;9.90;5.80;;;-1.10;99.90;;;;;;5030767;28;20026;-71
2022/01/07 07:14:25;;;;;;;13.52;6.22;;;-1.10;99.90;;;;;;5011946;28;20117;-71
2022/01/07 07:16:54;;;;;;;13.40;5.68;;;-1.10;99.90;;;;;;5032478;28;20050;-71
2022/01/07 07:19:21;;;;;;;13.60;5.82;;;-1.10;99.90;;;;;;5015584;28;20029;-71
2022/01/07 07:21:47;;;;;;;11.10;5.70;;;-1.10;99.90;;;;;;5031358;28;20026;-72
2022/01/07 07:24:12;;;;;;;15.38;6.35;;;-1.10;99.90;;;;;;5007248;28;20496;-70
2022/01/07 07:26:38;;;;;;;15.45;6.85;;;-1.10;99.90;;;;;;5027416;28;20171;-70
2022/01/07 07:29:04;;;;;;;11.27;6.15;;;-1.10;99.90;;;;;;5027836;28;20099;-70
2022/01/07 07:31:31;;;;;;;12.07;5.55;;;-1.10;99.90;;;;;;5024314;28;20103;-70
2022/01/07 07:34:19;;;;;;;12.45;5.90;;;-1.10;99.90;;;;;;5029712;28;20021;-69
2022/01/07 07:36:44;;;;;;;13.88;5.78;;;-1.10;99.90;;;;;;5023380;28;20028;-69
2022/01/07 07:39:11;;;;;;;9.68;5.25;;;-1.00;99.90;;;;;;5030308;28;20453;-69
2022/01/07 07:41:39;;;;;;;11.77;5.28;;;-1.00;99.90;;;;;;5031270;28;20028;-69
2022/01/07 07:44:06;;;;;;;12.35;6.07;;;-1.00;99.90;;;;;;5028906;28;20393;-69
2022/01/07 07:46:34;;;;;;;11.93;6.05;;;-0.90;99.90;;;;;;5028481;28;20028;-69
2022/01/07 07:49:01;;;;;;;14.73;6.05;;;-0.90;99.90;;;;;;5015494;28;20057;-70
2022/01/07 07:51:28;;;;;;;10.77;5.78;;;-0.80;99.90;;;;;;5026855;28;20037;-70
2022/01/07 07:53:54;;;;;;;13.60;5.82;;;-0.80;99.90;;;;;;5047182;28;20040;-70
2022/01/07 07:56:21;;;;;;;14.95;6.75;;;-0.70;99.90;;;;;;5047489;28;20040;-70
2022/01/07 07:58:47;;;;;;;16.63;7.65;;;-0.60;99.90;;;;;;5034680;28;20019;-70
2022/01/07 08:01:13;;;;;;;15.60;6.93;;;-0.50;99.90;;;;;;5033562;28;20021;-70
2022/01/07 08:03:40;;;;;;;17.50;6.97;;;-0.50;99.90;;;;;;5016827;28;20033;-70
2022/01/07 08:06:06;;;;;;;16.50;7.68;;;-0.30;99.90;;;;;;5029331;28;20481;-70
2022/01/07 08:08:32;;;;;;;15.80;6.55;;;-0.30;99.90;;;;;;5013358;28;20026;-70
2022/01/07 08:11:01;;;;;;;13.38;6.75;;;-0.20;99.90;;;;;;5024969;28;20030;-70
2022/01/07 08:15:59;;;;;;;10.88;5.90;;;-0.10;99.90;;;;;;5025427;28;20116;-73
2022/01/07 08:18:31;;;;;;;13.88;5.60;;;0.00;99.90;;;;;;5013066;28;20029;-70
2022/01/07 08:21:01;;;;;;;12.10;5.57;;;0.10;99.90;;;;;;5028909;28;20033;-70
2022/01/07 08:23:27;;;;;;;11.00;4.95;;;0.20;99.90;;;;;;5040675;28;20036;-70
2022/01/07 08:25:53;;;;;;;10.95;5.63;;;0.20;99.90;;;;;;5025051;28;20029;-70
2022/01/07 08:28:23;;;;;;;11.05;5.35;;;0.20;99.90;;;;;;5022654;28;20021;-71
2022/01/07 08:36:24;;;;;;;9.48;4.78;;;0.40;99.90;;;;;;5029244;28;20036;-70
2022/01/07 08:38:52;;;;;;;14.52;5.85;;;0.40;99.90;;;;;;5041080;28;20033;-70
2022/01/07 08:41:19;;;;;;;11.00;5.65;;;0.40;99.90;;;;;;5019111;28;20060;-70
2022/01/07 08:43:45;;;;;;;13.80;5.85;;;0.50;99.90;;;;;;5036764;28;20037;-71
2022/01/07 08:46:11;;;;;;;13.18;5.90;;;0.50;99.90;;;;;;5024071;28;20021;-70
2022/01/07 08:48:37;;;;;;;12.75;5.43;;;0.50;99.90;;;;;;5039399;28;20025;-70
2022/01/07 08:51:04;;;;;;;11.20;5.50;;;0.60;99.90;;;;;;5028863;28;20033;-70
2022/01/07 08:53:30;;;;;;;13.88;5.85;;;0.60;99.90;;;;;;5024036;28;20032;-72
2022/01/07 08:55:56;;;;;;;13.55;5.80;;;0.60;99.90;;;;;;4970580;28;20034;-72
2022/01/07 08:58:22;;;;;;;13.27;6.55;;;0.70;99.90;;;;;;5034159;28;20025;-72
2022/01/07 09:00:48;;;;;;;11.90;5.93;;;0.70;99.90;;;;;;5027501;28;20038;-73
2022/01/07 09:03:14;;;;;;;8.85;5.30;;;0.80;99.90;;;;;;5004451;28;20536;-70
2022/01/07 09:05:40;;;;;;;10.32;5.43;;;0.80;99.90;;;;;;5021290;28;20108;-71
2022/01/07 09:08:12;;;;;;;11.18;5.35;;;0.90;99.90;;;;;;5029265;28;20026;-70
2022/01/07 09:10:39;;;;;;;10.60;5.63;;;0.90;99.90;;;;;;5035013;28;20041;-72
2022/01/07 09:13:05;;;;;;;10.52;4.50;;;0.90;99.90;;;;;;5010008;28;20057;-70
2022/01/07 09:15:31;;;;;;;8.93;4.85;;;1.00;99.90;;;;;;5025139;28;20028;-71
2022/01/07 09:17:56;;;;;;;8.93;5.38;;;1.00;99.90;;;;;;5026618;28;20034;-71
2022/01/07 09:20:22;;;;;;;12.15;5.40;;;1.00;99.90;;;;;;5007682;28;20041;-71
2022/01/07 09:22:49;;;;;;;12.15;5.72;;;1.00;99.90;;;;;;5025261;28;20051;-71
2022/01/07 09:25:15;;;;;;;10.43;5.05;;;1.10;99.90;;;;;;5026278;28;20031;-71
2022/01/07 09:27:42;;;;;;;15.50;5.32;;;1.10;99.90;;;;;;5030861;28;21007;-72
2022/01/07 09:30:11;;;;;;;9.90;4.68;;;1.20;99.90;;;;;;5028307;28;20061;-71
2022/01/07 09:32:38;;;;;;;8.30;4.70;;;1.20;99.90;;;;;;5012499;28;20028;-71
2022/01/07 09:35:05;;;;;;;12.70;5.10;;;1.30;99.90;;;;;;5026084;28;20026;-71
2022/01/07 09:37:33;;;;;;;12.15;5.88;;;1.30;99.90;;;;;;5027629;28;20147;-70
2022/01/07 09:40:00;;;;;;;11.95;4.65;;;1.40;99.90;;;;;;5030620;28;20512;-71
2022/01/07 09:42:27;;;;;;;12.80;5.05;;;1.40;99.90;;;;;;5032972;28;20059;-70
2022/01/07 09:44:56;;;;;;;9.68;5.25;;;1.40;99.90;;;;;;5035066;28;20052;-71
2022/01/07 09:47:23;;;;;;;11.80;5.85;;;1.50;99.90;;;;;;5014068;28;20075;-71
2022/01/07 09:49:49;;;;;;;7.88;4.35;;;1.50;99.90;;;;;;5029307;28;20029;-70
2022/01/07 09:52:15;;;;;;;12.30;5.10;;;1.60;99.90;;;;;;5028877;28;20485;-70
2022/01/07 09:54:41;;;;;;;9.82;5.45;;;1.60;99.90;;;;;;5028655;28;20025;-70
2022/01/07 09:57:08;;;;;;;11.57;4.90;;;1.60;99.90;;;;;;5028729;28;20024;-70
2022/01/07 09:59:35;;;;;;;10.40;5.15;;;1.70;99.90;;;;;;5025234;28;20029;-70
2022/01/07 10:02:03;;;;;;;11.25;4.85;;;1.70;99.90;;;;;;5026868;28;20050;-70
2022/01/07 10:04:31;;;;;;;9.43;4.18;;;1.80;99.90;;;;;;5041279;28;20530;-70
2022/01/07 10:07:20;;;;;;;14.07;5.88;;;1.80;99.90;;;;;;5032674;28;20033;-72
2022/01/07 10:10:10;;;;;;;14.40;4.70;;;1.90;99.90;;;;;;5030796;28;20033;-71
2022/01/07 10:13:00;;;;;;;9.00;4.50;;;1.90;99.90;;;;;;5017796;28;20021;-71
2022/01/07 10:15:29;;;;;;;8.38;4.38;;;2.00;99.90;;;;;;5030129;28;20486;-73
2022/01/07 10:18:02;;;;;;;10.18;4.60;;;2.00;99.90;;;;;;5015454;28;20037;-72
2022/01/07 10:20:33;;;;;;;13.00;5.03;;;2.10;99.90;;;;;;5027722;28;20029;-72
2022/01/07 10:23:02;;;;;;;9.23;4.47;;;2.10;99.90;;;;;;5037446;28;20386;-72
2022/01/07 10:25:31;;;;;;;9.98;4.70;;;2.20;99.90;;;;;;5030130;28;20120;-73
2022/01/07 10:28:03;;;;;;;7.10;4.28;;;2.20;99.90;;;;;;5018299;28;20025;-74
2022/01/07 10:30:44;;;;;;;10.50;4.57;;;2.20;99.90;;;;;;5028715;28;20539;-73
2022/01/07 10:33:21;;;;;;;6.47;4.07;;;2.20;99.90;;;;;;5031432;28;20422;-73
2022/01/07 10:35:48;;;;;;;9.68;4.45;;;2.20;99.90;;;;;;5008685;28;20056;-72
2022/01/07 10:38:20;;;;;;;8.25;4.68;;;2.20;99.90;;;;;;5034451;28;20018;-72
2022/01/07 10:40:47;;;;;;;10.63;4.55;;;2.20;99.90;;;;;;5030499;28;20072;-72
2022/01/07 10:43:15;;;;;;;10.68;4.82;;;2.30;99.90;;;;;;5013717;28;20025;-72
2022/01/07 10:45:56;;;;;;;9.77;3.95;;;2.30;99.90;;;;;;5036914;28;20028;-71
2022/01/07 10:48:34;;;;;;;9.23;4.50;;;2.20;99.90;;;;;;5028475;28;20045;-71
2022/01/07 10:51:08;;;;;;;8.55;4.78;;;2.20;99.90;;;;;;5017931;28;20033;-72
2022/01/07 10:53:34;;;;;;;8.98;5.03;;;2.20;99.90;;;;;;5034804;28;20056;-71
2022/01/07 10:56:12;;;;;;;11.68;5.43;;;2.10;99.90;;;;;;5029299;28;20083;-71
2022/01/07 10:58:46;;;;;;;12.77;4.95;;;2.10;99.90;;;;;;5041005;28;20025;-69
2022/01/07 11:01:37;;;;;;;13.43;5.32;;;2.10;99.90;;;;;;5030308;28;20037;-71
2022/01/07 11:04:05;;;;;;;11.70;5.22;;;2.10;99.90;;;;;;5031889;28;20199;-72
2022/01/07 11:06:31;;;;;;;15.63;6.90;;;2.10;99.90;;;;;;5016679;28;20029;-70
2022/01/07 11:08:59;;;;;;;12.43;5.95;;;2.10;99.90;;;;;;5043077;28;20032;-70
2022/01/07 11:11:27;;;;;;;11.95;5.40;;;2.10;99.90;;;;;;5040381;28;21282;-69
2022/01/07 11:13:53;;;;;;;8.30;4.82;;;2.10;99.90;;;;;;5032139;28;20021;-69
2022/01/07 11:16:19;;;;;;;11.73;5.78;;;2.10;99.90;;;;;;5011958;28;20508;-70
2022/01/07 11:18:46;;;;;;;13.23;7.13;;;2.10;99.90;;;;;;5039356;28;20470;-70
2022/01/07 11:21:16;;;;;;;10.52;6.05;;;2.10;99.90;;;;;;5031370;28;20125;-69
2022/01/07 11:23:41;;;;;;;16.73;6.60;;;2.10;99.90;;;;;;5030731;28;20055;-69
2022/01/07 11:26:09;;;;;;;15.70;6.68;;;2.00;99.90;;;;;;5022800;28;20038;-69
2022/01/07 11:28:37;;;;;;;12.82;6.22;;;2.00;99.90;;;;;;5029409;28;20026;-69
2022/01/07 11:31:14;;;;;;;11.85;6.22;;;2.00;99.90;;;;;;5034513;28;20021;-69
2022/01/07 11:33:42;;;;;;;12.15;6.22;;;2.00;99.90;;;;;;5010575;28;20033;-70
2022/01/07 11:36:12;;;;;;;10.88;6.10;;;2.00;99.90;;;;;;5043561;28;20109;-69
2022/01/07 11:38:46;;;;;;;11.38;5.78;;;2.00;99.90;;;;;;5039232;28;20036;-69
2022/01/07 11:41:45;;;;;;;14.35;6.25;;;2.00;99.90;;;;;;5016023;28;20025;-69
2022/01/07 11:44:13;;;;;;;13.77;6.00;;;1.90;99.90;;;;;;5040152;28;20061;-68
2022/01/07 11:46:39;;;;;;;9.77;5.65;;;1.90;99.90;;;;;;5033447;28;20040;-69
2022/01/07 11:49:32;;;;;;;13.60;5.78;;;1.90;99.90;;;;;;5020197;28;20033;-68
2022/01/07 11:52:37;;;;;;;14.85;6.03;;;1.80;99.90;;;;;;5024196;28;20548;-68
2022/01/07 11:55:22;;;;;;;10.50;6.10;;;1.90;99.90;;;;;;5021389;28;20542;-69
2022/01/07 11:57:49;;;;;;;12.23;5.88;;;1.90;99.90;;;;;;5020830;28;20037;-69
2022/01/07 12:00:15;;;;;;;12.32;6.88;;;1.90;99.90;;;;;;5033731;28;20032;-69
2022/01/07 12:03:00;;;;;;;11.65;5.88;;;2.00;99.90;;;;;;5034358;28;20087;-68
2022/01/07 12:05:30;;;;;;;12.13;5.70;;;2.00;99.90;;;;;;5047173;28;20037;-69
2022/01/07 12:07:56;;;;;;;12.05;5.78;;;2.00;99.90;;;;;;5014967;28;20084;-68
2022/01/07 12:10:25;;;;;;;9.20;5.65;;;2.10;99.90;;;;;;5036650;28;20062;-68
2022/01/07 12:13:00;;;;;;;11.65;5.63;;;2.10;99.90;;;;;;5036099;28;20444;-69
2022/01/07 12:15:29;;;;;;;12.93;6.40;;;2.20;99.90;;;;;;5031304;28;20493;-69
2022/01/07 12:18:07;;;;;;;12.55;6.75;;;2.20;99.90;;;;;;5010524;28;20048;-70
2022/01/07 12:20:48;;;;;;;17.95;7.38;;;2.20;99.90;;;;;;5038906;28;20021;-68
2022/01/07 12:23:22;;;;;;;15.15;5.75;;;2.30;99.90;;;;;;5035048;28;20095;-71
2022/01/07 12:25:49;;;;;;;10.70;5.90;;;2.30;99.90;;;;;;5036705;28;20029;-67
2022/01/07 12:28:15;;;;;;;12.95;5.68;;;2.30;99.90;;;;;;5022217;28;20033;-69
2022/01/07 12:30:41;;;;;;;14.60;5.75;;;2.30;99.90;;;;;;5032303;28;20033;-68
2022/01/07 12:33:08;;;;;;;12.18;5.72;;;2.40;99.90;;;;;;5033576;28;20022;-69
2022/01/07 12:35:34;;;;;;;12.43;6.15;;;2.40;99.90;;;;;;5039740;28;20038;-68
2022/01/07 12:38:08;;;;;;;10.98;5.63;;;2.40;99.90;;;;;;5020749;28;20018;-69
2022/01/07 12:40:34;;;;;;;10.52;5.78;;;2.40;99.90;;;;;;5031184;28;20117;-68
2022/01/07 12:42:59;;;;;;;12.30;5.72;;;2.40;99.90;;;;;;5035012;28;20104;-69
2022/01/07 12:45:25;;;;;;;13.73;6.05;;;2.50;99.90;;;;;;5040848;28;20094;-68
2022/01/07 12:48:03;;;;;;;11.50;5.88;;;2.50;99.90;;;;;;5029698;28;20454;-69
2022/01/07 12:50:29;;;;;;;12.65;5.85;;;2.50;99.90;;;;;;5037533;28;20029;-69
2022/01/07 12:53:05;;;;;;;12.52;6.30;;;2.50;99.90;;;;;;5039302;28;20125;-69
2022/01/07 12:55:30;;;;;;;11.77;6.07;;;2.60;99.90;;;;;;5030204;23;20045;-68